sensor_id;sensor_type;location;lat;lon;timestamp;P1;durP1;ratioP1;P2;durP2;ratioP2
44646;SDS011;56315;-33.902;151.160;2022-08-01T00:02:01;5.55;;;1.00;;
44646;SDS011;56315;-33.902;151.160;2022-08-01T00:04:29;2.15;;;0.80;;
44646;SDS011;56315;-33.902;151.160;2022-08-01T00:06:56;1.83;;;0.73;;
44646;SDS011;56315;-33.902;151.160;2022-08-01T00:09:23;1.27;;;0.70;;
44646;SDS011;56315;-33.902;151.160;2022-08-01T00:11:51;1.23;;;0.60;;
44646;SDS011;56315;-33.902;151.160;2022-08-01T00:14:18;1.90;;;1.13;;
44646;SDS011;56315;-33.902;151.160;2022-08-01T00:16:45;1.15;;;0.30;;
44646;SDS011;56315;-33.902;151.160;2022-08-01T00:19:13;0.63;;;0.40;;
44646;SDS011;56315;-33.902;151.160;2022-08-01T00:21:40;0.65;;;0.40;;
44646;SDS011;56315;-33.902;151.160;2022-08-01T00:24:07;1.40;;;0.47;;
44646;SDS011;56315;-33.902;151.160;2022-08-01T00:26:35;1.55;;;0.70;;
44646;SDS011;56315;-33.902;151.160;2022-08-01T00:29:02;0.68;;;0.38;;
44646;SDS011;56315;-33.902;151.160;2022-08-01T00:31:29;0.50;;;0.28;;
44646;SDS011;56315;-33.902;151.160;2022-08-01T00:33:57;1.58;;;0.45;;
44646;SDS011;56315;-33.902;151.160;2022-08-01T00:36:24;1.50;;;0.70;;
44646;SDS011;56315;-33.902;151.160;2022-08-01T00:38:52;2.50;;;0.50;;
44646;SDS011;56315;-33.902;151.160;2022-08-01T00:41:19;1.88;;;0.52;;
44646;SDS011;56315;-33.902;151.160;2022-08-01T00:43:46;2.30;;;0.60;;
44646;SDS011;56315;-33.902;151.160;2022-08-01T00:46:14;1.02;;;0.40;;
44646;SDS011;56315;-33.902;151.160;2022-08-01T00:48:41;0.75;;;0.40;;
44646;SDS011;56315;-33.902;151.160;2022-08-01T00:51:09;0.85;;;0.40;;
44646;SDS011;56315;-33.902;151.160;2022-08-01T00:53:36;1.48;;;0.50;;
44646;SDS011;56315;-33.902;151.160;2022-08-01T00:56:04;0.85;;;0.32;;
44646;SDS011;56315;-33.902;151.160;2022-08-01T00:58:33;0.50;;;0.30;;
44646;SDS011;56315;-33.902;151.160;2022-08-01T01:01:00;1.33;;;0.35;;
44646;SDS011;56315;-33.902;151.160;2022-08-01T01:03:28;2.55;;;0.38;;
44646;SDS011;56315;-33.902;151.160;2022-08-01T01:08:24;0.77;;;0.47;;
44646;SDS011;56315;-33.902;151.160;2022-08-01T01:11:00;0.75;;;0.30;;
44646;SDS011;56315;-33.902;151.160;2022-08-01T01:13:46;0.57;;;0.30;;
44646;SDS011;56315;-33.902;151.160;2022-08-01T01:16:19;2.45;;;0.52;;
44646;SDS011;56315;-33.902;151.160;2022-08-01T01:18:55;0.50;;;0.25;;
44646;SDS011;56315;-33.902;151.160;2022-08-01T01:29:43;0.40;;;0.40;;
44646;SDS011;56315;-33.902;151.160;2022-08-01T01:32:36;0.82;;;0.35;;
44646;SDS011;56315;-33.902;151.160;2022-08-01T01:35:24;0.95;;;0.40;;
44646;SDS011;56315;-33.902;151.160;2022-08-01T01:38:01;0.55;;;0.35;;
44646;SDS011;56315;-33.902;151.160;2022-08-01T01:40:34;1.83;;;0.60;;
44646;SDS011;56315;-33.902;151.160;2022-08-01T01:43:04;0.55;;;0.52;;
44646;SDS011;56315;-33.902;151.160;2022-08-01T01:45:35;0.63;;;0.30;;
44646;SDS011;56315;-33.902;151.160;2022-08-01T01:48:04;0.90;;;0.40;;
44646;SDS011;56315;-33.902;151.160;2022-08-01T01:50:35;2.85;;;0.68;;
44646;SDS011;56315;-33.902;151.160;2022-08-01T01:53:03;0.85;;;0.40;;
44646;SDS011;56315;-33.902;151.160;2022-08-01T01:55:31;2.90;;;0.60;;
44646;SDS011;56315;-33.902;151.160;2022-08-01T01:58:01;1.67;;;0.70;;
44646;SDS011;56315;-33.902;151.160;2022-08-01T02:00:28;0.98;;;0.40;;
44646;SDS011;56315;-33.902;151.160;2022-08-01T02:02:56;0.60;;;0.40;;
44646;SDS011;56315;-33.902;151.160;2022-08-01T02:05:25;1.73;;;0.40;;
44646;SDS011;56315;-33.902;151.160;2022-08-01T02:07:54;1.00;;;0.40;;
44646;SDS011;56315;-33.902;151.160;2022-08-01T02:10:22;1.23;;;0.45;;
44646;SDS011;56315;-33.902;151.160;2022-08-01T02:12:52;0.65;;;0.28;;
44646;SDS011;56315;-33.902;151.160;2022-08-01T02:15:20;1.10;;;0.47;;
44646;SDS011;56315;-33.902;151.160;2022-08-01T02:17:49;1.13;;;0.40;;
44646;SDS011;56315;-33.902;151.160;2022-08-01T02:20:19;0.60;;;0.35;;
44646;SDS011;56315;-33.902;151.160;2022-08-01T02:22:47;2.53;;;0.70;;
44646;SDS011;56315;-33.902;151.160;2022-08-01T02:28:06;0.85;;;0.40;;
44646;SDS011;56315;-33.902;151.160;2022-08-01T02:30:50;1.83;;;0.55;;
44646;SDS011;56315;-33.902;151.160;2022-08-01T02:33:19;0.90;;;0.40;;
44646;SDS011;56315;-33.902;151.160;2022-08-01T02:35:52;1.65;;;0.70;;
44646;SDS011;56315;-33.902;151.160;2022-08-01T02:38:24;2.17;;;0.60;;
44646;SDS011;56315;-33.902;151.160;2022-08-01T02:40:55;1.35;;;0.63;;
44646;SDS011;56315;-33.902;151.160;2022-08-01T02:43:28;1.60;;;0.80;;
44646;SDS011;56315;-33.902;151.160;2022-08-01T02:45:59;1.08;;;0.73;;
44646;SDS011;56315;-33.902;151.160;2022-08-01T02:48:28;1.50;;;0.70;;
44646;SDS011;56315;-33.902;151.160;2022-08-01T02:51:00;1.08;;;0.40;;
44646;SDS011;56315;-33.902;151.160;2022-08-01T02:53:30;1.98;;;0.68;;
44646;SDS011;56315;-33.902;151.160;2022-08-01T02:56:04;1.98;;;0.80;;
44646;SDS011;56315;-33.902;151.160;2022-08-01T02:58:34;1.80;;;0.52;;
44646;SDS011;56315;-33.902;151.160;2022-08-01T03:01:05;1.33;;;0.70;;
44646;SDS011;56315;-33.902;151.160;2022-08-01T03:03:34;1.63;;;0.50;;
44646;SDS011;56315;-33.902;151.160;2022-08-01T03:06:03;3.15;;;1.35;;
44646;SDS011;56315;-33.902;151.160;2022-08-01T03:08:31;3.47;;;0.70;;
44646;SDS011;56315;-33.902;151.160;2022-08-01T03:11:00;3.63;;;1.00;;
44646;SDS011;56315;-33.902;151.160;2022-08-01T03:13:29;0.57;;;0.30;;
44646;SDS011;56315;-33.902;151.160;2022-08-01T03:15:57;1.10;;;0.50;;
44646;SDS011;56315;-33.902;151.160;2022-08-01T03:18:25;0.85;;;0.50;;
44646;SDS011;56315;-33.902;151.160;2022-08-01T03:20:55;1.88;;;0.50;;
44646;SDS011;56315;-33.902;151.160;2022-08-01T03:23:24;2.33;;;0.90;;
44646;SDS011;56315;-33.902;151.160;2022-08-01T03:25:53;1.35;;;0.60;;
44646;SDS011;56315;-33.902;151.160;2022-08-01T03:28:22;4.07;;;0.90;;
44646;SDS011;56315;-33.902;151.160;2022-08-01T03:30:50;2.00;;;1.00;;
44646;SDS011;56315;-33.902;151.160;2022-08-01T03:33:18;1.10;;;0.60;;
44646;SDS011;56315;-33.902;151.160;2022-08-01T03:35:47;1.80;;;0.40;;
44646;SDS011;56315;-33.902;151.160;2022-08-01T03:38:17;3.38;;;0.50;;
44646;SDS011;56315;-33.902;151.160;2022-08-01T03:40:55;1.25;;;0.50;;
44646;SDS011;56315;-33.902;151.160;2022-08-01T03:43:37;1.40;;;0.35;;
44646;SDS011;56315;-33.902;151.160;2022-08-01T03:46:13;1.27;;;0.40;;
44646;SDS011;56315;-33.902;151.160;2022-08-01T03:48:53;2.17;;;0.93;;
44646;SDS011;56315;-33.902;151.160;2022-08-01T03:51:24;0.50;;;0.25;;
44646;SDS011;56315;-33.902;151.160;2022-08-01T03:53:53;2.05;;;0.50;;
44646;SDS011;56315;-33.902;151.160;2022-08-01T03:56:23;1.70;;;0.40;;
44646;SDS011;56315;-33.902;151.160;2022-08-01T03:58:51;1.10;;;0.40;;
44646;SDS011;56315;-33.902;151.160;2022-08-01T04:01:19;0.95;;;0.50;;
44646;SDS011;56315;-33.902;151.160;2022-08-01T04:03:47;1.67;;;0.50;;
44646;SDS011;56315;-33.902;151.160;2022-08-01T04:06:15;1.10;;;0.50;;
44646;SDS011;56315;-33.902;151.160;2022-08-01T04:08:42;1.25;;;0.40;;
44646;SDS011;56315;-33.902;151.160;2022-08-01T04:11:21;0.90;;;0.30;;
44646;SDS011;56315;-33.902;151.160;2022-08-01T04:13:50;0.75;;;0.30;;
44646;SDS011;56315;-33.902;151.160;2022-08-01T04:16:19;1.48;;;0.40;;
44646;SDS011;56315;-33.902;151.160;2022-08-01T04:18:47;6.90;;;0.40;;
44646;SDS011;56315;-33.902;151.160;2022-08-01T04:21:14;0.80;;;0.32;;
44646;SDS011;56315;-33.902;151.160;2022-08-01T04:23:47;0.20;;;0.20;;
44646;SDS011;56315;-33.902;151.160;2022-08-01T04:26:17;1.15;;;0.28;;
44646;SDS011;56315;-33.902;151.160;2022-08-01T04:28:46;1.92;;;0.38;;
44646;SDS011;56315;-33.902;151.160;2022-08-01T04:31:15;0.50;;;0.20;;
44646;SDS011;56315;-33.902;151.160;2022-08-01T04:33:46;0.73;;;0.40;;
44646;SDS011;56315;-33.902;151.160;2022-08-01T04:36:17;0.63;;;0.20;;
44646;SDS011;56315;-33.902;151.160;2022-08-01T04:38:49;0.60;;;0.13;;
44646;SDS011;56315;-33.902;151.160;2022-08-01T04:41:20;0.98;;;0.28;;
44646;SDS011;56315;-33.902;151.160;2022-08-01T04:43:48;0.88;;;0.30;;
44646;SDS011;56315;-33.902;151.160;2022-08-01T04:46:16;0.45;;;0.20;;
44646;SDS011;56315;-33.902;151.160;2022-08-01T04:48:44;1.48;;;0.30;;
44646;SDS011;56315;-33.902;151.160;2022-08-01T04:51:16;0.88;;;0.30;;
44646;SDS011;56315;-33.902;151.160;2022-08-01T04:53:47;0.98;;;0.40;;
44646;SDS011;56315;-33.902;151.160;2022-08-01T04:56:17;0.88;;;0.30;;
44646;SDS011;56315;-33.902;151.160;2022-08-01T04:58:47;6.32;;;1.65;;
44646;SDS011;56315;-33.902;151.160;2022-08-01T05:01:34;1.88;;;0.50;;
44646;SDS011;56315;-33.902;151.160;2022-08-01T05:04:02;1.92;;;0.40;;
44646;SDS011;56315;-33.902;151.160;2022-08-01T05:06:29;1.95;;;0.30;;
44646;SDS011;56315;-33.902;151.160;2022-08-01T05:08:57;4.53;;;0.52;;
44646;SDS011;56315;-33.902;151.160;2022-08-01T05:11:24;2.17;;;0.50;;
44646;SDS011;56315;-33.902;151.160;2022-08-01T05:13:51;4.10;;;0.50;;
44646;SDS011;56315;-33.902;151.160;2022-08-01T05:16:19;2.10;;;0.30;;
44646;SDS011;56315;-33.902;151.160;2022-08-01T05:18:46;1.50;;;0.32;;
44646;SDS011;56315;-33.902;151.160;2022-08-01T05:21:13;0.57;;;0.25;;
44646;SDS011;56315;-33.902;151.160;2022-08-01T05:23:40;0.65;;;0.30;;
44646;SDS011;56315;-33.902;151.160;2022-08-01T05:26:08;0.50;;;0.20;;
44646;SDS011;56315;-33.902;151.160;2022-08-01T05:28:36;0.50;;;0.30;;
44646;SDS011;56315;-33.902;151.160;2022-08-01T05:31:04;0.93;;;0.30;;
44646;SDS011;56315;-33.902;151.160;2022-08-01T05:33:32;1.17;;;0.50;;
44646;SDS011;56315;-33.902;151.160;2022-08-01T05:35:59;0.52;;;0.30;;
44646;SDS011;56315;-33.902;151.160;2022-08-01T05:38:28;1.20;;;0.20;;
44646;SDS011;56315;-33.902;151.160;2022-08-01T05:40:55;2.25;;;0.30;;
44646;SDS011;56315;-33.902;151.160;2022-08-01T05:43:22;0.77;;;0.30;;
44646;SDS011;56315;-33.902;151.160;2022-08-01T05:45:50;0.32;;;0.30;;
44646;SDS011;56315;-33.902;151.160;2022-08-01T05:48:17;0.57;;;0.30;;
44646;SDS011;56315;-33.902;151.160;2022-08-01T05:50:44;1.35;;;0.30;;
44646;SDS011;56315;-33.902;151.160;2022-08-01T05:53:13;0.60;;;0.30;;
44646;SDS011;56315;-33.902;151.160;2022-08-01T05:55:40;1.58;;;0.68;;
44646;SDS011;56315;-33.902;151.160;2022-08-01T05:58:07;1.67;;;0.60;;
44646;SDS011;56315;-33.902;151.160;2022-08-01T06:00:35;1.45;;;0.30;;
44646;SDS011;56315;-33.902;151.160;2022-08-01T06:03:02;0.70;;;0.40;;
44646;SDS011;56315;-33.902;151.160;2022-08-01T06:05:29;2.22;;;0.40;;
44646;SDS011;56315;-33.902;151.160;2022-08-01T06:07:57;1.23;;;0.28;;
44646;SDS011;56315;-33.902;151.160;2022-08-01T06:10:25;1.17;;;0.30;;
44646;SDS011;56315;-33.902;151.160;2022-08-01T06:12:52;0.88;;;0.30;;
44646;SDS011;56315;-33.902;151.160;2022-08-01T06:15:19;0.82;;;0.30;;
44646;SDS011;56315;-33.902;151.160;2022-08-01T06:17:47;0.32;;;0.20;;
44646;SDS011;56315;-33.902;151.160;2022-08-01T06:20:14;0.80;;;0.20;;
44646;SDS011;56315;-33.902;151.160;2022-08-01T06:22:41;1.13;;;0.30;;
44646;SDS011;56315;-33.902;151.160;2022-08-01T06:25:09;0.45;;;0.30;;
44646;SDS011;56315;-33.902;151.160;2022-08-01T06:27:36;0.70;;;0.30;;
44646;SDS011;56315;-33.902;151.160;2022-08-01T06:30:04;0.88;;;0.40;;
44646;SDS011;56315;-33.902;151.160;2022-08-01T06:42:17;1.23;;;0.40;;
44646;SDS011;56315;-33.902;151.160;2022-08-01T06:44:45;2.15;;;0.50;;
44646;SDS011;56315;-33.902;151.160;2022-08-01T06:53:45;1.92;;;0.65;;
44646;SDS011;56315;-33.902;151.160;2022-08-01T06:56:12;0.65;;;0.20;;
44646;SDS011;56315;-33.902;151.160;2022-08-01T06:58:42;1.50;;;0.50;;
44646;SDS011;56315;-33.902;151.160;2022-08-01T07:01:10;1.45;;;0.40;;
44646;SDS011;56315;-33.902;151.160;2022-08-01T07:03:37;1.25;;;0.68;;
44646;SDS011;56315;-33.902;151.160;2022-08-01T07:06:05;0.80;;;0.43;;
44646;SDS011;56315;-33.902;151.160;2022-08-01T07:11:54;1.50;;;0.70;;
44646;SDS011;56315;-33.902;151.160;2022-08-01T07:31:12;3.60;;;1.45;;
44646;SDS011;56315;-33.902;151.160;2022-08-01T07:44:04;2.25;;;1.40;;
44646;SDS011;56315;-33.902;151.160;2022-08-01T07:46:31;2.80;;;1.30;;
44646;SDS011;56315;-33.902;151.160;2022-08-01T07:52:57;2.33;;;1.00;;
44646;SDS011;56315;-33.902;151.160;2022-08-01T08:02:44;6.22;;;2.05;;
44646;SDS011;56315;-33.902;151.160;2022-08-01T08:05:55;2.35;;;1.30;;
44646;SDS011;56315;-33.902;151.160;2022-08-01T08:08:23;2.40;;;1.10;;
44646;SDS011;56315;-33.902;151.160;2022-08-01T08:14:12;2.42;;;1.25;;
44646;SDS011;56315;-33.902;151.160;2022-08-01T08:23:23;3.42;;;1.73;;
44646;SDS011;56315;-33.902;151.160;2022-08-01T08:29:30;4.13;;;1.80;;
44646;SDS011;56315;-33.902;151.160;2022-08-01T08:32:47;5.73;;;2.43;;
44646;SDS011;56315;-33.902;151.160;2022-08-01T08:39:12;3.67;;;2.10;;
44646;SDS011;56315;-33.902;151.160;2022-08-01T08:41:43;3.20;;;2.10;;
44646;SDS011;56315;-33.902;151.160;2022-08-01T08:44:10;4.00;;;1.90;;
44646;SDS011;56315;-33.902;151.160;2022-08-01T08:46:42;6.30;;;2.17;;
44646;SDS011;56315;-33.902;151.160;2022-08-01T08:49:18;6.82;;;2.63;;
44646;SDS011;56315;-33.902;151.160;2022-08-01T08:51:51;3.60;;;2.00;;
44646;SDS011;56315;-33.902;151.160;2022-08-01T08:54:20;5.38;;;3.05;;
44646;SDS011;56315;-33.902;151.160;2022-08-01T08:56:52;5.93;;;2.90;;
44646;SDS011;56315;-33.902;151.160;2022-08-01T08:59:21;4.28;;;2.65;;
44646;SDS011;56315;-33.902;151.160;2022-08-01T09:01:52;6.57;;;3.08;;
44646;SDS011;56315;-33.902;151.160;2022-08-01T09:04:22;5.28;;;3.65;;
44646;SDS011;56315;-33.902;151.160;2022-08-01T09:06:50;5.00;;;3.40;;
44646;SDS011;56315;-33.902;151.160;2022-08-01T09:09:18;4.25;;;3.30;;
44646;SDS011;56315;-33.902;151.160;2022-08-01T09:11:46;5.75;;;2.83;;
44646;SDS011;56315;-33.902;151.160;2022-08-01T09:14:18;4.03;;;2.58;;
44646;SDS011;56315;-33.902;151.160;2022-08-01T09:17:02;6.80;;;2.58;;
44646;SDS011;56315;-33.902;151.160;2022-08-01T09:19:37;3.42;;;2.10;;
44646;SDS011;56315;-33.902;151.160;2022-08-01T09:22:07;2.90;;;2.00;;
44646;SDS011;56315;-33.902;151.160;2022-08-01T09:24:36;4.72;;;2.58;;
44646;SDS011;56315;-33.902;151.160;2022-08-01T09:27:16;5.72;;;2.58;;
44646;SDS011;56315;-33.902;151.160;2022-08-01T09:29:50;3.63;;;2.67;;
44646;SDS011;56315;-33.902;151.160;2022-08-01T09:32:19;4.30;;;2.35;;
44646;SDS011;56315;-33.902;151.160;2022-08-01T09:34:46;4.95;;;2.13;;
44646;SDS011;56315;-33.902;151.160;2022-08-01T09:37:14;4.03;;;2.65;;
44646;SDS011;56315;-33.902;151.160;2022-08-01T09:39:43;4.55;;;2.40;;
44646;SDS011;56315;-33.902;151.160;2022-08-01T09:42:21;4.85;;;2.63;;
44646;SDS011;56315;-33.902;151.160;2022-08-01T09:44:50;4.28;;;3.08;;
44646;SDS011;56315;-33.902;151.160;2022-08-01T09:47:18;6.85;;;3.47;;
44646;SDS011;56315;-33.902;151.160;2022-08-01T10:13:14;8.43;;;3.90;;
44646;SDS011;56315;-33.902;151.160;2022-08-01T10:15:41;8.27;;;4.65;;
44646;SDS011;56315;-33.902;151.160;2022-08-01T10:18:09;10.68;;;4.18;;
44646;SDS011;56315;-33.902;151.160;2022-08-01T10:20:37;8.63;;;4.10;;
44646;SDS011;56315;-33.902;151.160;2022-08-01T10:23:05;5.18;;;3.80;;
44646;SDS011;56315;-33.902;151.160;2022-08-01T10:29:07;8.15;;;3.67;;
44646;SDS011;56315;-33.902;151.160;2022-08-01T10:31:36;6.65;;;3.45;;
44646;SDS011;56315;-33.902;151.160;2022-08-01T10:34:04;6.68;;;3.88;;
44646;SDS011;56315;-33.902;151.160;2022-08-01T10:36:31;8.45;;;4.03;;
44646;SDS011;56315;-33.902;151.160;2022-08-01T10:39:02;9.13;;;4.03;;
44646;SDS011;56315;-33.902;151.160;2022-08-01T10:41:31;8.13;;;4.70;;
44646;SDS011;56315;-33.902;151.160;2022-08-01T10:44:00;9.23;;;4.60;;
44646;SDS011;56315;-33.902;151.160;2022-08-01T10:46:29;6.82;;;4.13;;
44646;SDS011;56315;-33.902;151.160;2022-08-01T10:49:02;7.43;;;4.10;;
44646;SDS011;56315;-33.902;151.160;2022-08-01T10:51:30;7.97;;;4.18;;
44646;SDS011;56315;-33.902;151.160;2022-08-01T10:54:02;6.13;;;4.00;;
44646;SDS011;56315;-33.902;151.160;2022-08-01T10:59:14;11.73;;;4.97;;
44646;SDS011;56315;-33.902;151.160;2022-08-01T11:02:03;8.50;;;4.20;;
44646;SDS011;56315;-33.902;151.160;2022-08-01T11:04:41;7.82;;;3.97;;
44646;SDS011;56315;-33.902;151.160;2022-08-01T11:07:34;9.90;;;4.30;;
44646;SDS011;56315;-33.902;151.160;2022-08-01T11:12:55;7.28;;;4.53;;
44646;SDS011;56315;-33.902;151.160;2022-08-01T11:15:24;6.63;;;4.07;;
44646;SDS011;56315;-33.902;151.160;2022-08-01T11:17:56;8.23;;;4.40;;
44646;SDS011;56315;-33.902;151.160;2022-08-01T11:20:25;7.13;;;4.10;;
44646;SDS011;56315;-33.902;151.160;2022-08-01T11:30:54;9.23;;;4.65;;
44646;SDS011;56315;-33.902;151.160;2022-08-01T11:41:25;6.25;;;4.30;;
44646;SDS011;56315;-33.902;151.160;2022-08-01T11:43:55;8.25;;;4.50;;
44646;SDS011;56315;-33.902;151.160;2022-08-01T11:54:54;10.65;;;4.57;;
44646;SDS011;56315;-33.902;151.160;2022-08-01T11:57:27;7.18;;;4.20;;
44646;SDS011;56315;-33.902;151.160;2022-08-01T11:59:59;6.10;;;3.80;;
44646;SDS011;56315;-33.902;151.160;2022-08-01T12:02:35;8.15;;;3.85;;
44646;SDS011;56315;-33.902;151.160;2022-08-01T12:05:05;5.82;;;3.95;;
44646;SDS011;56315;-33.902;151.160;2022-08-01T12:07:37;5.22;;;3.83;;
44646;SDS011;56315;-33.902;151.160;2022-08-01T12:10:16;5.95;;;4.45;;
44646;SDS011;56315;-33.902;151.160;2022-08-01T12:12:48;4.75;;;3.72;;
44646;SDS011;56315;-33.902;151.160;2022-08-01T12:15:18;9.73;;;4.30;;
44646;SDS011;56315;-33.902;151.160;2022-08-01T12:17:48;5.78;;;3.75;;
44646;SDS011;56315;-33.902;151.160;2022-08-01T12:20:20;6.95;;;4.00;;
44646;SDS011;56315;-33.902;151.160;2022-08-01T12:22:56;5.55;;;3.60;;
44646;SDS011;56315;-33.902;151.160;2022-08-01T12:25:25;6.18;;;3.95;;
44646;SDS011;56315;-33.902;151.160;2022-08-01T12:27:52;6.70;;;4.32;;
44646;SDS011;56315;-33.902;151.160;2022-08-01T12:30:20;7.47;;;4.00;;
44646;SDS011;56315;-33.902;151.160;2022-08-01T12:32:49;7.63;;;4.32;;
44646;SDS011;56315;-33.902;151.160;2022-08-01T12:35:18;8.15;;;4.97;;
44646;SDS011;56315;-33.902;151.160;2022-08-01T12:38:01;6.60;;;3.80;;
44646;SDS011;56315;-33.902;151.160;2022-08-01T12:40:31;8.57;;;4.00;;
44646;SDS011;56315;-33.902;151.160;2022-08-01T12:43:01;6.47;;;4.00;;
44646;SDS011;56315;-33.902;151.160;2022-08-01T12:45:34;8.18;;;3.83;;
44646;SDS011;56315;-33.902;151.160;2022-08-01T12:48:10;6.63;;;3.42;;
44646;SDS011;56315;-33.902;151.160;2022-08-01T12:50:39;7.28;;;4.18;;
44646;SDS011;56315;-33.902;151.160;2022-08-01T12:53:13;7.30;;;3.95;;
44646;SDS011;56315;-33.902;151.160;2022-08-01T12:55:48;8.52;;;4.40;;
44646;SDS011;56315;-33.902;151.160;2022-08-01T12:58:17;9.55;;;4.10;;
44646;SDS011;56315;-33.902;151.160;2022-08-01T13:00:46;8.80;;;4.15;;
44646;SDS011;56315;-33.902;151.160;2022-08-01T13:03:15;8.18;;;3.85;;
44646;SDS011;56315;-33.902;151.160;2022-08-01T13:05:48;7.80;;;3.75;;
44646;SDS011;56315;-33.902;151.160;2022-08-01T13:10:49;7.28;;;4.72;;
44646;SDS011;56315;-33.902;151.160;2022-08-01T13:13:19;7.78;;;4.15;;
44646;SDS011;56315;-33.902;151.160;2022-08-01T13:15:47;6.90;;;3.95;;
44646;SDS011;56315;-33.902;151.160;2022-08-01T13:18:29;7.65;;;4.40;;
44646;SDS011;56315;-33.902;151.160;2022-08-01T13:21:14;6.72;;;4.03;;
44646;SDS011;56315;-33.902;151.160;2022-08-01T13:24:03;7.15;;;4.45;;
44646;SDS011;56315;-33.902;151.160;2022-08-01T13:26:42;6.35;;;3.92;;
44646;SDS011;56315;-33.902;151.160;2022-08-01T13:29:21;8.98;;;3.88;;
44646;SDS011;56315;-33.902;151.160;2022-08-01T13:34:41;8.27;;;3.88;;
44646;SDS011;56315;-33.902;151.160;2022-08-01T13:37:09;8.30;;;4.30;;
44646;SDS011;56315;-33.902;151.160;2022-08-01T13:39:36;6.22;;;4.13;;
44646;SDS011;56315;-33.902;151.160;2022-08-01T13:42:07;8.80;;;5.25;;
44646;SDS011;56315;-33.902;151.160;2022-08-01T13:44:35;7.30;;;4.32;;
44646;SDS011;56315;-33.902;151.160;2022-08-01T13:47:03;7.93;;;5.13;;
44646;SDS011;56315;-33.902;151.160;2022-08-01T13:49:31;8.38;;;4.35;;
44646;SDS011;56315;-33.902;151.160;2022-08-01T13:51:59;8.82;;;4.75;;
44646;SDS011;56315;-33.902;151.160;2022-08-01T13:54:28;6.32;;;4.00;;
44646;SDS011;56315;-33.902;151.160;2022-08-01T13:56:57;8.35;;;4.80;;
44646;SDS011;56315;-33.902;151.160;2022-08-01T13:59:24;7.65;;;4.20;;
44646;SDS011;56315;-33.902;151.160;2022-08-01T14:01:51;7.72;;;5.20;;
44646;SDS011;56315;-33.902;151.160;2022-08-01T14:04:19;10.25;;;5.00;;
44646;SDS011;56315;-33.902;151.160;2022-08-01T14:06:47;8.18;;;4.82;;
44646;SDS011;56315;-33.902;151.160;2022-08-01T14:09:14;8.32;;;4.55;;
44646;SDS011;56315;-33.902;151.160;2022-08-01T14:11:45;10.45;;;4.95;;
44646;SDS011;56315;-33.902;151.160;2022-08-01T14:14:12;6.00;;;3.85;;
44646;SDS011;56315;-33.902;151.160;2022-08-01T14:16:40;7.80;;;4.18;;
44646;SDS011;56315;-33.902;151.160;2022-08-01T14:19:10;8.82;;;4.80;;
44646;SDS011;56315;-33.902;151.160;2022-08-01T14:21:37;7.63;;;4.60;;
44646;SDS011;56315;-33.902;151.160;2022-08-01T14:24:05;8.70;;;3.88;;
44646;SDS011;56315;-33.902;151.160;2022-08-01T14:26:32;6.03;;;3.20;;
44646;SDS011;56315;-33.902;151.160;2022-08-01T14:28:59;5.50;;;3.65;;
44646;SDS011;56315;-33.902;151.160;2022-08-01T14:31:27;4.78;;;2.80;;
44646;SDS011;56315;-33.902;151.160;2022-08-01T14:33:55;6.88;;;3.35;;
44646;SDS011;56315;-33.902;151.160;2022-08-01T14:36:22;4.70;;;2.60;;
44646;SDS011;56315;-33.902;151.160;2022-08-01T14:38:53;6.07;;;2.88;;
44646;SDS011;56315;-33.902;151.160;2022-08-01T14:41:20;5.68;;;3.03;;
44646;SDS011;56315;-33.902;151.160;2022-08-01T14:43:47;3.33;;;2.45;;
44646;SDS011;56315;-33.902;151.160;2022-08-01T14:46:14;3.70;;;2.40;;
44646;SDS011;56315;-33.902;151.160;2022-08-01T14:48:42;5.18;;;2.22;;
44646;SDS011;56315;-33.902;151.160;2022-08-01T14:51:09;5.10;;;2.17;;
44646;SDS011;56315;-33.902;151.160;2022-08-01T14:53:37;5.30;;;2.13;;
44646;SDS011;56315;-33.902;151.160;2022-08-01T14:56:05;5.00;;;2.25;;
44646;SDS011;56315;-33.902;151.160;2022-08-01T14:58:32;4.22;;;1.98;;
44646;SDS011;56315;-33.902;151.160;2022-08-01T15:01:00;4.03;;;1.88;;
44646;SDS011;56315;-33.902;151.160;2022-08-01T15:03:29;4.93;;;2.42;;
44646;SDS011;56315;-33.902;151.160;2022-08-01T15:05:57;6.00;;;2.50;;
44646;SDS011;56315;-33.902;151.160;2022-08-01T15:08:25;3.78;;;1.98;;
44646;SDS011;56315;-33.902;151.160;2022-08-01T15:10:52;4.60;;;2.70;;
44646;SDS011;56315;-33.902;151.160;2022-08-01T15:13:19;4.93;;;2.55;;
44646;SDS011;56315;-33.902;151.160;2022-08-01T15:15:47;5.72;;;2.78;;
44646;SDS011;56315;-33.902;151.160;2022-08-01T15:18:14;7.20;;;2.53;;
44646;SDS011;56315;-33.902;151.160;2022-08-01T15:20:42;3.92;;;2.13;;
44646;SDS011;56315;-33.902;151.160;2022-08-01T15:23:10;4.88;;;2.00;;
44646;SDS011;56315;-33.902;151.160;2022-08-01T15:25:37;4.47;;;1.65;;
44646;SDS011;56315;-33.902;151.160;2022-08-01T15:28:05;4.15;;;2.40;;
44646;SDS011;56315;-33.902;151.160;2022-08-01T15:30:33;4.95;;;2.55;;
44646;SDS011;56315;-33.902;151.160;2022-08-01T15:33:01;5.50;;;2.10;;
44646;SDS011;56315;-33.902;151.160;2022-08-01T15:35:28;3.03;;;1.55;;
44646;SDS011;56315;-33.902;151.160;2022-08-01T15:37:55;3.05;;;1.63;;
44646;SDS011;56315;-33.902;151.160;2022-08-01T15:40:23;6.55;;;2.15;;
44646;SDS011;56315;-33.902;151.160;2022-08-01T15:42:50;4.43;;;1.90;;
44646;SDS011;56315;-33.902;151.160;2022-08-01T15:45:17;2.65;;;1.70;;
44646;SDS011;56315;-33.902;151.160;2022-08-01T15:47:46;3.95;;;2.00;;
44646;SDS011;56315;-33.902;151.160;2022-08-01T15:50:14;5.38;;;2.33;;
44646;SDS011;56315;-33.902;151.160;2022-08-01T15:52:41;3.53;;;2.25;;
44646;SDS011;56315;-33.902;151.160;2022-08-01T15:55:10;4.38;;;2.15;;
44646;SDS011;56315;-33.902;151.160;2022-08-01T15:57:37;5.25;;;2.28;;
44646;SDS011;56315;-33.902;151.160;2022-08-01T16:00:04;4.28;;;1.98;;
44646;SDS011;56315;-33.902;151.160;2022-08-01T16:02:32;7.35;;;3.35;;
44646;SDS011;56315;-33.902;151.160;2022-08-01T16:04:59;5.85;;;2.90;;
44646;SDS011;56315;-33.902;151.160;2022-08-01T16:07:27;5.68;;;2.63;;
44646;SDS011;56315;-33.902;151.160;2022-08-01T16:09:54;6.50;;;2.80;;
44646;SDS011;56315;-33.902;151.160;2022-08-01T16:12:21;3.38;;;2.30;;
44646;SDS011;56315;-33.902;151.160;2022-08-01T16:14:49;4.60;;;2.05;;
44646;SDS011;56315;-33.902;151.160;2022-08-01T16:17:16;4.15;;;2.00;;
44646;SDS011;56315;-33.902;151.160;2022-08-01T16:19:43;3.38;;;1.90;;
44646;SDS011;56315;-33.902;151.160;2022-08-01T16:22:10;5.95;;;2.60;;
44646;SDS011;56315;-33.902;151.160;2022-08-01T16:24:38;4.60;;;2.00;;
44646;SDS011;56315;-33.902;151.160;2022-08-01T16:27:05;4.28;;;1.85;;
44646;SDS011;56315;-33.902;151.160;2022-08-01T16:29:33;3.90;;;1.80;;
44646;SDS011;56315;-33.902;151.160;2022-08-01T16:32:00;2.60;;;1.75;;
44646;SDS011;56315;-33.902;151.160;2022-08-01T16:34:27;3.78;;;2.35;;
44646;SDS011;56315;-33.902;151.160;2022-08-01T16:36:55;4.38;;;2.33;;
44646;SDS011;56315;-33.902;151.160;2022-08-01T16:39:22;4.00;;;2.00;;
44646;SDS011;56315;-33.902;151.160;2022-08-01T16:41:50;4.35;;;2.10;;
44646;SDS011;56315;-33.902;151.160;2022-08-01T16:44:18;4.00;;;1.98;;
44646;SDS011;56315;-33.902;151.160;2022-08-01T16:46:45;5.32;;;2.40;;
44646;SDS011;56315;-33.902;151.160;2022-08-01T16:49:12;5.30;;;2.00;;
44646;SDS011;56315;-33.902;151.160;2022-08-01T16:51:40;5.97;;;1.90;;
44646;SDS011;56315;-33.902;151.160;2022-08-01T16:54:07;5.55;;;1.88;;
44646;SDS011;56315;-33.902;151.160;2022-08-01T16:56:34;2.80;;;1.70;;